Resonance — WDI3870 — position and weather

sailwx.info

Track history (hours):
 
Tides and Currents Weather Stations Pressure Air Temp Water Temp Dewpoint Dewpoint Depression Visibility Wind Speed Wind Dir Waves Ship Positions

Resonance

Owner: Ford, Stephen S, Portland, OR. More information available from US FCC via Universal Licensing System and Coast Guard Vessel Documentation Center.

Last reported at 2017-Sep-24 22:37 UTC. Time now 2017-Dec-14 13:24 UTC.
Position N 48°33' W 123°17'.
Warning: this ship's position is months out of date.

Length 15 m.

Type: Sailing vessel. MMSI: 367692760.

Date/timePositionNaut miles runAvg speedWind from/ knotsBaromVisibWave heightAir tempDewpointWater temp
2017-Sep-24 22:37N 48°33' W 123°17'1 6.9
2017-Sep-24 22:30N 48°32' W 123°16'3 5.2
2017-Sep-24 21:59N 48°31' W 123°12'1 2.4
2017-Sep-24 21:30N 48°30' W 123°13'2 3.0
2017-Sep-24 21:00N 48°29' W 123°14'1 2.3
2017-Sep-24 20:30N 48°28' W 123°15'1 1.7
2017-Sep-24 20:00N 48°27' W 123°14'1 1.1
2017-Sep-24 19:30N 48°27' W 123°13'1 2.7
2017-Sep-24 19:00N 48°27' W 123°15'2 3.7
2017-Sep-24 18:30N 48°26' W 123°17'2 4.6
2017-Sep-24 18:00N 48°24' W 123°18'3 5.9
2017-Sep-24 17:30N 48°24' W 123°22'1 0.1
2017-Sep-24 02:58N 48°25' W 123°22'0 0.0
2017-Sep-24 02:25N 48°25' W 123°22'0 0.0
2017-Sep-24 01:57N 48°25' W 123°22'0 0.0
2017-Sep-24 01:25N 48°25' W 123°22'0 0.0
2017-Sep-24 00:58N 48°25' W 123°22'0 0.0
2017-Sep-24 00:28N 48°25' W 123°22'0 0.0
2017-Sep-23 23:52N 48°25' W 123°22'0 0.0
2017-Sep-23 23:28N 48°25' W 123°22'0 0.0
2017-Sep-23 22:58N 48°25' W 123°22'0 0.0
2017-Sep-23 22:30N 48°25' W 123°22'0 0.0
2017-Sep-23 22:00N 48°25' W 123°22'0 0.0
2017-Sep-23 21:30N 48°25' W 123°22'0 0.0
2017-Sep-23 20:57N 48°25' W 123°22'0 0.0
2017-Sep-23 20:30N 48°25' W 123°22'0 0.0
2017-Sep-23 20:00N 48°25' W 123°22'15 0.3
2017-Sep-21 23:13N 48°40' W 123°21'1 4.6
2017-Sep-21 22:56N 48°40' W 123°23'  
Track history (hours):
 
Tides and Currents Weather Stations Pressure Air Temp Water Temp Dewpoint Dewpoint Depression Visibility Wind Speed Wind Dir Waves Ship Positions

Resonance

Owner: Ford, Stephen S, Portland, OR. More information available from US FCC via Universal Licensing System and Coast Guard Vessel Documentation Center.

Last reported at 2017-Sep-24 22:37 UTC. Time now 2017-Dec-14 13:24 UTC.
Position N 48°33' W 123°17'.
Warning: this ship's position is months out of date.

Length 15 m.

Type: Sailing vessel. MMSI: 367692760.

Date/timePositionNaut miles runAvg speedWind from/ knotsBaromVisibWave heightAir tempDewpointWater temp
2017-Sep-24 22:37N 48°33' W 123°17'1 6.9
2017-Sep-24 22:30N 48°32' W 123°16'3 5.2
2017-Sep-24 21:59N 48°31' W 123°12'1 2.4
2017-Sep-24 21:30N 48°30' W 123°13'2 3.0
2017-Sep-24 21:00N 48°29' W 123°14'1 2.3
2017-Sep-24 20:30N 48°28' W 123°15'1 1.7
2017-Sep-24 20:00N 48°27' W 123°14'1 1.1
2017-Sep-24 19:30N 48°27' W 123°13'1 2.7
2017-Sep-24 19:00N 48°27' W 123°15'2 3.7
2017-Sep-24 18:30N 48°26' W 123°17'2 4.6
2017-Sep-24 18:00N 48°24' W 123°18'3 5.9
2017-Sep-24 17:30N 48°24' W 123°22'1 0.1
2017-Sep-24 02:58N 48°25' W 123°22'0 0.0
2017-Sep-24 02:25N 48°25' W 123°22'0 0.0
2017-Sep-24 01:57N 48°25' W 123°22'0 0.0
2017-Sep-24 01:25N 48°25' W 123°22'0 0.0
2017-Sep-24 00:58N 48°25' W 123°22'0 0.0
2017-Sep-24 00:28N 48°25' W 123°22'0 0.0
2017-Sep-23 23:52N 48°25' W 123°22'0 0.0
2017-Sep-23 23:28N 48°25' W 123°22'0 0.0
2017-Sep-23 22:58N 48°25' W 123°22'0 0.0
2017-Sep-23 22:30N 48°25' W 123°22'0 0.0
2017-Sep-23 22:00N 48°25' W 123°22'0 0.0
2017-Sep-23 21:30N 48°25' W 123°22'0 0.0
2017-Sep-23 20:57N 48°25' W 123°22'0 0.0
2017-Sep-23 20:30N 48°25' W 123°22'0 0.0
2017-Sep-23 20:00N 48°25' W 123°22'15 0.3
2017-Sep-21 23:13N 48°40' W 123°21'1 4.6
2017-Sep-21 22:56N 48°40' W 123°23'  

Dump ship's entire track history